Little Valley, Nevada Weather observations

Data are for 10 minute period ending at time listed.
 Day   Time    Ave.   Ave.  Ave.  Vector   Max.   Total    Solar   
  of    of     Air    Rel.  Wind   Wind    Wind  Precip.   Rad.    
Year   Day     Temp.  Hum.  Speed  Dir.    Gust                    
2015   (PST)    F      %     mph   deg.    mph     in.     W/m2    
------------------------------------------------------------------- 
 238   18:00   71.0    27    6.0   263     22.0   14.37     154  
 238   19:00   69.0    25   10.0   258     21.0   14.37      33  
 238   20:00   68.0    25    7.0   213     19.0   14.37       0  
 238   21:00   66.0    26    6.0   202     17.0   14.37       0  
 238   22:00   65.0    27    3.0   224     12.0   14.37       0  
 238   23:00   60.0    40    3.0   232     17.0   14.37       0  
 239    0:00   59.0    37    3.0   213      7.0   14.37       0  
 239    1:00   61.0    32    3.0   219      7.0   14.37       0  
 239    2:00   57.0    37    4.0   184      9.0   14.37       0  
 239    3:00   49.0    50    3.0   185      6.0   14.37       0  
 239    4:00   47.0    56    2.0   182      5.0   14.37       0  
 239    5:00   44.0    64    0.0   230      3.0   14.37       0  
 239    6:00   42.0    68    0.0   119      0.0   14.37       2  
 239    7:00   50.0    56    0.0   140      3.0   14.37      73  
 239    8:00   63.0    44    0.0   125      2.0   14.37     196  
 239    9:00   73.0    25    4.0   225     11.0   14.37     484  
 239   10:00   75.0    27    4.0   238     15.0   14.37     664  
 239   11:00   75.0    28    6.0   229     16.0   14.37     813  
 239   12:00   77.0    27    7.0   305     16.0   14.37     905  
 239   13:00   79.0    24    6.0   282     16.0   14.37     932  
 239   14:00   78.0    24    9.0   299     17.0   14.37     886  
 239   15:00   79.0    23    7.0   272     19.0   14.37     784  
 239   16:00   78.0    23    8.0   268     20.0   14.37     612  
 239   17:00   76.0    24    9.0   233     22.0   14.37     427  

Return to Little Valley, Nevada graphs page.


Western Regional Climate Center,wrcc@dri.edu